N831B KCNO-KFUL
Flight info
| Callsign | N831B |
|---|---|
| Flight time | 0h 14m |
| Altitude | 5000 |
| Route | PDZ V388 SLI |
| Aircraft | C172/L-VGD/A |
Departure
| Time | 2026-04-12 01:56 |
|---|---|
| Airport | Chino Airport (KCNO) |
Arrival
| Time | 2026-04-12 02:10 |
|---|---|
| Airport | Fullerton Municipal Airport (KFUL) |
| Time | Latitude | Longitude | Altitude | Speed | Heading |
|---|---|---|---|---|---|
| 2026-04-12 01:47 | 33.97735 | -117.63723 | 632 ft | 0 kts | 180° |
| 2026-04-12 01:51 | 33.97734 | -117.63723 | 632 ft | 0 kts | 180° |
| 2026-04-12 01:51 | 33.97723 | -117.63706 | 632 ft | 7 kts | 103° |
| 2026-04-12 01:51 | 33.97726 | -117.63644 | 633 ft | 3 kts | 74° |
| 2026-04-12 01:52 | 33.97725 | -117.63641 | 633 ft | 0 kts | 134° |
| 2026-04-12 01:52 | 33.97709 | -117.63628 | 633 ft | 5 kts | 150° |
| 2026-04-12 01:52 | 33.97711 | -117.63599 | 634 ft | 5 kts | 85° |
| 2026-04-12 01:52 | 33.97697 | -117.63567 | 634 ft | 9 kts | 117° |
| 2026-04-12 01:53 | 33.97691 | -117.63461 | 634 ft | 16 kts | 88° |
| 2026-04-12 01:53 | 33.97692 | -117.63303 | 635 ft | 20 kts | 92° |
| 2026-04-12 01:53 | 33.97693 | -117.63130 | 638 ft | 18 kts | 89° |
| 2026-04-12 01:53 | 33.97674 | -117.63084 | 637 ft | 0 kts | 147° |
| 2026-04-12 01:54 | 33.97673 | -117.63084 | 637 ft | 0 kts | 171° |
| 2026-04-12 01:54 | 33.97644 | -117.63081 | 637 ft | 9 kts | 178° |
| 2026-04-12 01:55 | 33.97589 | -117.63085 | 635 ft | 5 kts | 223° |
| 2026-04-12 01:55 | 33.97579 | -117.63222 | 633 ft | 47 kts | 270° |
| 2026-04-12 01:55 | 33.97575 | -117.63818 | 693 ft | 85 kts | 268° |
| 2026-04-12 01:55 | 33.97532 | -117.64455 | 1084 ft | 69 kts | 258° |
| 2026-04-12 01:56 | 33.97366 | -117.65047 | 1257 ft | 82 kts | 236° |
| 2026-04-12 01:56 | 33.96879 | -117.65211 | 1518 ft | 81 kts | 149° |
| 2026-04-12 01:56 | 33.96718 | -117.64656 | 1780 ft | 81 kts | 75° |
| 2026-04-12 01:56 | 33.97097 | -117.64178 | 2022 ft | 82 kts | 8° |
| 2026-04-12 01:57 | 33.97576 | -117.64475 | 2245 ft | 85 kts | 290° |
| 2026-04-12 01:57 | 33.97892 | -117.64985 | 2548 ft | 78 kts | 308° |
| 2026-04-12 01:57 | 33.98140 | -117.65484 | 2795 ft | 77 kts | 284° |
| 2026-04-12 01:57 | 33.98295 | -117.66042 | 2955 ft | 84 kts | 305° |
| 2026-04-12 01:58 | 33.98595 | -117.66614 | 3261 ft | 75 kts | 291° |
| 2026-04-12 01:58 | 33.98768 | -117.67280 | 3434 ft | 83 kts | 287° |
| 2026-04-12 01:58 | 33.98935 | -117.67898 | 3679 ft | 83 kts | 287° |
| 2026-04-12 01:58 | 33.99121 | -117.68555 | 3931 ft | 79 kts | 290° |
| 2026-04-12 01:59 | 33.99323 | -117.69196 | 4122 ft | 85 kts | 290° |
| 2026-04-12 01:59 | 33.99531 | -117.69901 | 4206 ft | 98 kts | 290° |
| 2026-04-12 01:59 | 33.99792 | -117.70633 | 4298 ft | 103 kts | 292° |
| 2026-04-12 01:59 | 33.99902 | -117.71503 | 4370 ft | 108 kts | 264° |
| 2026-04-12 02:00 | 33.99929 | -117.72411 | 4411 ft | 113 kts | 276° |
| 2026-04-12 02:00 | 33.99997 | -117.73335 | 4647 ft | 101 kts | 270° |
| 2026-04-12 02:00 | 33.99713 | -117.74234 | 4240 ft | 127 kts | 227° |
| 2026-04-12 02:00 | 33.98996 | -117.74788 | 4106 ft | 128 kts | 197° |
| 2026-04-12 02:01 | 33.98125 | -117.74997 | 3898 ft | 129 kts | 191° |
| 2026-04-12 02:01 | 33.97255 | -117.75206 | 3618 ft | 130 kts | 191° |
| 2026-04-12 02:01 | 33.96386 | -117.75419 | 3397 ft | 126 kts | 191° |
| 2026-04-12 02:01 | 33.95528 | -117.75623 | 3124 ft | 128 kts | 192° |
| 2026-04-12 02:02 | 33.94706 | -117.75892 | 2981 ft | 120 kts | 207° |
| 2026-04-12 02:02 | 33.94048 | -117.76497 | 2824 ft | 116 kts | 216° |
| 2026-04-12 02:02 | 33.93474 | -117.76977 | 2718 ft | 110 kts | 222° |
| 2026-04-12 02:02 | 33.93145 | -117.77432 | 2978 ft | 81 kts | 230° |
| 2026-04-12 02:03 | 33.92735 | -117.77978 | 2991 ft | 90 kts | 224° |
| 2026-04-12 02:03 | 33.92300 | -117.78519 | 3062 ft | 90 kts | 227° |
| 2026-04-12 02:03 | 33.91848 | -117.79092 | 3094 ft | 95 kts | 225° |
| 2026-04-12 02:03 | 33.91349 | -117.79686 | 3087 ft | 103 kts | 224° |
| 2026-04-12 02:04 | 33.90836 | -117.80279 | 3092 ft | 101 kts | 224° |
| 2026-04-12 02:04 | 33.90533 | -117.81036 | 3024 ft | 105 kts | 259° |
| 2026-04-12 02:04 | 33.90341 | -117.81859 | 3022 ft | 100 kts | 259° |
| 2026-04-12 02:04 | 33.90280 | -117.82765 | 2794 ft | 110 kts | 267° |
| 2026-04-12 02:05 | 33.90107 | -117.83647 | 2720 ft | 105 kts | 257° |
| 2026-04-12 02:05 | 33.89978 | -117.84516 | 2570 ft | 109 kts | 262° |
| 2026-04-12 02:05 | 33.89753 | -117.85292 | 2656 ft | 89 kts | 247° |
| 2026-04-12 02:05 | 33.89553 | -117.86047 | 2531 ft | 95 kts | 251° |
| 2026-04-12 02:06 | 33.89390 | -117.86830 | 2463 ft | 96 kts | 257° |
| 2026-04-12 02:06 | 33.89270 | -117.87684 | 2253 ft | 107 kts | 262° |
| 2026-04-12 02:06 | 33.89076 | -117.88527 | 1949 ft | 104 kts | 245° |
| 2026-04-12 02:06 | 33.88848 | -117.89320 | 1725 ft | 95 kts | 255° |
| 2026-04-12 02:07 | 33.88657 | -117.90082 | 1415 ft | 99 kts | 256° |
| 2026-04-12 02:07 | 33.88534 | -117.90920 | 1061 ft | 103 kts | 265° |
| 2026-04-12 02:07 | 33.88464 | -117.91785 | 678 ft | 107 kts | 263° |
| 2026-04-12 02:07 | 33.88337 | -117.92608 | 516 ft | 92 kts | 250° |
| 2026-04-12 02:08 | 33.88121 | -117.93285 | 498 ft | 87 kts | 252° |
| 2026-04-12 02:08 | 33.87948 | -117.93981 | 519 ft | 87 kts | 253° |
| 2026-04-12 02:08 | 33.87812 | -117.94711 | 563 ft | 95 kts | 261° |
| 2026-04-12 02:08 | 33.87707 | -117.95412 | 550 ft | 76 kts | 258° |
| 2026-04-12 02:09 | 33.87583 | -117.95986 | 517 ft | 69 kts | 257° |
| 2026-04-12 02:09 | 33.87477 | -117.96576 | 375 ft | 73 kts | 258° |
| 2026-04-12 02:09 | 33.87362 | -117.97153 | 235 ft | 69 kts | 256° |
| 2026-04-12 02:09 | 33.87265 | -117.97655 | 98 ft | 50 kts | 258° |
| 2026-04-12 02:10 | 33.87203 | -117.97986 | 92 ft | 29 kts | 252° |
| 2026-04-12 02:10 | 33.87186 | -117.98090 | 91 ft | 7 kts | 259° |
| 2026-04-12 02:10 | 33.87190 | -117.98127 | 90 ft | 2 kts | 319° |
| 2026-04-12 02:10 | 33.87233 | -117.98140 | 90 ft | 0 kts | 2° |
| 2026-04-12 02:22 | 33.97735 | -117.63723 | 632 ft | 0 kts | 180° |